الصفحة الرئيسية
METAR-TAF:

METAR-TAF

مطار :

مطار بتروبافل

بتروبافل, كازاخستان

دائرة عرض: 54-46-28N, خط طول: 069-11-06E, ارتفاع: 139 متر

مراقبة الطقس الحالي

تاريخ ووقت الإصدار 11ساعات و 22 دقيقة قبل الساعة 11:30UTC
ريح 12 عقدة من الجنوب الغربي
درجة الحرارة 18°درجة مئوية
الرطوبة 56%
ضغط 995 hPa
الرؤية 10 كم أو أكثر
غيوم متفرقة على ارتفاع 3600 قدم, مزنة ركامية.

METAR: UACP 221130Z 22006MPS 9999 SCT036CB 18/09 Q0995 R23/0/0060 NOSIG RMK QFE734/0979

زمن: 04:52 (22:52 UTC)

توقعات

تاريخ ووقت الإصدار 14ساعات و 48 دقيقة قبل الساعة 08:04UTC
التوقعات صالحة من22 الساعة 09 UTC إلى 22 الساعة 18 UTC
ريح 10 عقدة من الغرب/الجنوب الغربي
الرؤية 10 كم أو أكثر
غيوم مفككة على ارتفاع 3000 قدم, مزنة ركامية.
مؤقت
من 22 الساعة 09 UTC إلى 22 الساعة 15 UTC
ريح 16 عقدة من الغرب/الشمال الغربي تتزايد حتى 25 عقدة
الرؤية: 3000 متر
عاصفة رعدية, مطر خفيف

TAF: UACP 220804Z 2209/2218 25005MPS 9999 BKN030CB TEMPO 2209/2215 30008G13MPS 3000 -TSRA

أرصاد الطقس والتوقعات من أكثر من 4000 مطار (تقارير الطقس للمطار METAR والتنبؤ بالطقس بالمطارTAF).

المحطات المتاحة هي النقط الصفراء والحمراء على الخريطة.

حرك المؤشر فوق النقطة لمعرفة اسم المحطة.

ثم انقر لمعرفة أرصاد وتوقعات الطقس.

لتغيير الخارطة: اضغط على الأزرار الخضراء مع رمز الصليب الأسود للتكبير. على الزر الأخضر مع شرطة للتصغير، أو على الأسهم الخضراء للخرائط المجاورة.


METAR-TAF: